sensor_id;sensor_type;location;lat;lon;timestamp;P1;durP1;ratioP1;P2;durP2;ratioP2
8333;SDS011;4204;43.004;23.052;2023-05-13T00:00:41;5.07;;;2.73;;
8333;SDS011;4204;43.004;23.052;2023-05-13T00:03:09;5.30;;;2.93;;
8333;SDS011;4204;43.004;23.052;2023-05-13T00:05:36;3.97;;;2.90;;
8333;SDS011;4204;43.004;23.052;2023-05-13T00:08:05;6.03;;;2.60;;
8333;SDS011;4204;43.004;23.052;2023-05-13T00:10:34;3.97;;;2.77;;
8333;SDS011;4204;43.004;23.052;2023-05-13T00:13:02;3.67;;;2.83;;
8333;SDS011;4204;43.004;23.052;2023-05-13T00:15:30;5.43;;;3.00;;
8333;SDS011;4204;43.004;23.052;2023-05-13T00:17:58;3.07;;;2.67;;
8333;SDS011;4204;43.004;23.052;2023-05-13T00:20:26;5.07;;;2.87;;
8333;SDS011;4204;43.004;23.052;2023-05-13T00:22:53;3.93;;;2.80;;
8333;SDS011;4204;43.004;23.052;2023-05-13T00:25:21;3.40;;;2.80;;
8333;SDS011;4204;43.004;23.052;2023-05-13T00:27:50;3.93;;;2.73;;
8333;SDS011;4204;43.004;23.052;2023-05-13T00:30:18;2.97;;;2.60;;
8333;SDS011;4204;43.004;23.052;2023-05-13T00:32:46;3.37;;;2.90;;
8333;SDS011;4204;43.004;23.052;2023-05-13T00:35:14;3.90;;;3.03;;
8333;SDS011;4204;43.004;23.052;2023-05-13T00:37:42;4.47;;;2.80;;
8333;SDS011;4204;43.004;23.052;2023-05-13T00:40:18;2.70;;;2.47;;
8333;SDS011;4204;43.004;23.052;2023-05-13T00:42:47;3.07;;;2.73;;
8333;SDS011;4204;43.004;23.052;2023-05-13T00:45:16;2.93;;;2.63;;
8333;SDS011;4204;43.004;23.052;2023-05-13T00:47:44;3.30;;;3.00;;
8333;SDS011;4204;43.004;23.052;2023-05-13T00:50:12;3.83;;;3.07;;
8333;SDS011;4204;43.004;23.052;2023-05-13T00:52:41;3.20;;;2.90;;
8333;SDS011;4204;43.004;23.052;2023-05-13T00:55:09;3.47;;;3.10;;
8333;SDS011;4204;43.004;23.052;2023-05-13T00:57:37;3.23;;;2.90;;
8333;SDS011;4204;43.004;23.052;2023-05-13T01:00:06;4.20;;;3.00;;
8333;SDS011;4204;43.004;23.052;2023-05-13T01:02:47;3.00;;;2.77;;
8333;SDS011;4204;43.004;23.052;2023-05-13T01:05:21;3.90;;;3.20;;
8333;SDS011;4204;43.004;23.052;2023-05-13T01:07:57;6.13;;;3.20;;
8333;SDS011;4204;43.004;23.052;2023-05-13T01:10:31;5.77;;;3.27;;
8333;SDS011;4204;43.004;23.052;2023-05-13T01:13:04;4.10;;;3.00;;
8333;SDS011;4204;43.004;23.052;2023-05-13T01:15:37;3.20;;;2.90;;
8333;SDS011;4204;43.004;23.052;2023-05-13T01:18:09;7.00;;;2.87;;
8333;SDS011;4204;43.004;23.052;2023-05-13T01:20:45;5.30;;;3.37;;
8333;SDS011;4204;43.004;23.052;2023-05-13T01:23:15;3.53;;;3.17;;
8333;SDS011;4204;43.004;23.052;2023-05-13T01:25:42;4.30;;;3.67;;
8333;SDS011;4204;43.004;23.052;2023-05-13T01:28:10;5.03;;;3.67;;
8333;SDS011;4204;43.004;23.052;2023-05-13T01:30:41;3.50;;;3.20;;
8333;SDS011;4204;43.004;23.052;2023-05-13T01:33:09;5.07;;;3.23;;
8333;SDS011;4204;43.004;23.052;2023-05-13T01:35:37;3.83;;;3.43;;
8333;SDS011;4204;43.004;23.052;2023-05-13T01:38:06;4.20;;;3.80;;
8333;SDS011;4204;43.004;23.052;2023-05-13T01:40:37;4.20;;;3.37;;
8333;SDS011;4204;43.004;23.052;2023-05-13T01:43:06;4.03;;;3.60;;
8333;SDS011;4204;43.004;23.052;2023-05-13T01:45:35;5.13;;;3.40;;
8333;SDS011;4204;43.004;23.052;2023-05-13T01:48:03;3.77;;;3.10;;
8333;SDS011;4204;43.004;23.052;2023-05-13T01:50:40;4.93;;;3.57;;
8333;SDS011;4204;43.004;23.052;2023-05-13T01:53:09;4.77;;;3.57;;
8333;SDS011;4204;43.004;23.052;2023-05-13T01:55:39;4.40;;;3.23;;
8333;SDS011;4204;43.004;23.052;2023-05-13T01:58:08;3.33;;;2.83;;
8333;SDS011;4204;43.004;23.052;2023-05-13T02:00:36;8.30;;;3.63;;
8333;SDS011;4204;43.004;23.052;2023-05-13T02:03:03;3.70;;;3.40;;
8333;SDS011;4204;43.004;23.052;2023-05-13T02:05:31;4.67;;;3.50;;
8333;SDS011;4204;43.004;23.052;2023-05-13T02:08:03;3.73;;;3.33;;
8333;SDS011;4204;43.004;23.052;2023-05-13T02:10:31;3.97;;;3.50;;
8333;SDS011;4204;43.004;23.052;2023-05-13T02:13:01;3.53;;;3.23;;
8333;SDS011;4204;43.004;23.052;2023-05-13T02:15:29;4.97;;;3.43;;
8333;SDS011;4204;43.004;23.052;2023-05-13T02:17:57;4.17;;;3.40;;
8333;SDS011;4204;43.004;23.052;2023-05-13T02:20:24;3.57;;;3.13;;
8333;SDS011;4204;43.004;23.052;2023-05-13T02:22:52;4.63;;;3.30;;
8333;SDS011;4204;43.004;23.052;2023-05-13T02:25:20;4.00;;;3.60;;
8333;SDS011;4204;43.004;23.052;2023-05-13T02:27:47;4.57;;;3.00;;
8333;SDS011;4204;43.004;23.052;2023-05-13T02:30:17;4.47;;;3.30;;
8333;SDS011;4204;43.004;23.052;2023-05-13T02:32:45;4.33;;;3.20;;
8333;SDS011;4204;43.004;23.052;2023-05-13T02:35:13;3.20;;;2.90;;
8333;SDS011;4204;43.004;23.052;2023-05-13T02:37:41;5.47;;;3.63;;
8333;SDS011;4204;43.004;23.052;2023-05-13T02:40:10;5.23;;;4.20;;
8333;SDS011;4204;43.004;23.052;2023-05-13T02:42:39;6.10;;;4.10;;
8333;SDS011;4204;43.004;23.052;2023-05-13T02:45:10;5.40;;;4.20;;
8333;SDS011;4204;43.004;23.052;2023-05-13T02:47:42;4.23;;;3.70;;
8333;SDS011;4204;43.004;23.052;2023-05-13T02:50:10;3.57;;;3.27;;
8333;SDS011;4204;43.004;23.052;2023-05-13T02:52:39;9.77;;;3.60;;
8333;SDS011;4204;43.004;23.052;2023-05-13T02:55:07;6.17;;;3.80;;
8333;SDS011;4204;43.004;23.052;2023-05-13T02:57:36;6.07;;;3.77;;
8333;SDS011;4204;43.004;23.052;2023-05-13T03:00:04;4.53;;;3.50;;
8333;SDS011;4204;43.004;23.052;2023-05-13T03:02:34;5.03;;;3.57;;
8333;SDS011;4204;43.004;23.052;2023-05-13T03:05:03;3.87;;;3.40;;
8333;SDS011;4204;43.004;23.052;2023-05-13T03:07:32;4.37;;;3.63;;
8333;SDS011;4204;43.004;23.052;2023-05-13T03:10:00;5.20;;;3.80;;
8333;SDS011;4204;43.004;23.052;2023-05-13T03:12:28;5.37;;;3.67;;
8333;SDS011;4204;43.004;23.052;2023-05-13T03:14:56;3.77;;;3.33;;
8333;SDS011;4204;43.004;23.052;2023-05-13T03:17:24;4.77;;;3.80;;
8333;SDS011;4204;43.004;23.052;2023-05-13T03:19:51;5.17;;;3.87;;
8333;SDS011;4204;43.004;23.052;2023-05-13T03:22:20;4.13;;;3.60;;
8333;SDS011;4204;43.004;23.052;2023-05-13T03:24:49;5.40;;;3.27;;
8333;SDS011;4204;43.004;23.052;2023-05-13T03:27:18;4.27;;;3.80;;
8333;SDS011;4204;43.004;23.052;2023-05-13T03:29:46;4.47;;;3.37;;
8333;SDS011;4204;43.004;23.052;2023-05-13T03:32:14;4.10;;;3.37;;
8333;SDS011;4204;43.004;23.052;2023-05-13T03:34:42;4.47;;;3.60;;
8333;SDS011;4204;43.004;23.052;2023-05-13T03:37:10;5.17;;;3.77;;
8333;SDS011;4204;43.004;23.052;2023-05-13T03:39:39;5.47;;;3.70;;
8333;SDS011;4204;43.004;23.052;2023-05-13T03:42:06;4.30;;;3.90;;
8333;SDS011;4204;43.004;23.052;2023-05-13T03:44:35;5.70;;;4.10;;
8333;SDS011;4204;43.004;23.052;2023-05-13T03:47:02;4.67;;;3.93;;
8333;SDS011;4204;43.004;23.052;2023-05-13T03:49:30;4.00;;;3.60;;
8333;SDS011;4204;43.004;23.052;2023-05-13T03:51:58;5.50;;;4.00;;
8333;SDS011;4204;43.004;23.052;2023-05-13T03:54:26;3.87;;;3.47;;
8333;SDS011;4204;43.004;23.052;2023-05-13T03:56:56;4.20;;;3.20;;
8333;SDS011;4204;43.004;23.052;2023-05-13T03:59:23;4.23;;;3.60;;
8333;SDS011;4204;43.004;23.052;2023-05-13T04:01:51;5.13;;;3.40;;
8333;SDS011;4204;43.004;23.052;2023-05-13T04:04:19;5.30;;;3.60;;
8333;SDS011;4204;43.004;23.052;2023-05-13T04:06:46;5.53;;;3.80;;
8333;SDS011;4204;43.004;23.052;2023-05-13T04:09:14;4.50;;;3.47;;
8333;SDS011;4204;43.004;23.052;2023-05-13T04:11:42;4.57;;;3.23;;
8333;SDS011;4204;43.004;23.052;2023-05-13T04:14:11;7.17;;;4.10;;
8333;SDS011;4204;43.004;23.052;2023-05-13T04:16:39;4.23;;;3.67;;
8333;SDS011;4204;43.004;23.052;2023-05-13T04:19:08;4.10;;;3.70;;
8333;SDS011;4204;43.004;23.052;2023-05-13T04:21:36;4.67;;;4.27;;
8333;SDS011;4204;43.004;23.052;2023-05-13T04:24:04;7.43;;;4.70;;
8333;SDS011;4204;43.004;23.052;2023-05-13T04:26:32;4.43;;;4.03;;
8333;SDS011;4204;43.004;23.052;2023-05-13T04:29:00;5.93;;;4.43;;
8333;SDS011;4204;43.004;23.052;2023-05-13T04:31:29;4.30;;;3.90;;
8333;SDS011;4204;43.004;23.052;2023-05-13T04:33:57;3.43;;;3.13;;
8333;SDS011;4204;43.004;23.052;2023-05-13T04:36:26;4.27;;;3.30;;
8333;SDS011;4204;43.004;23.052;2023-05-13T04:38:55;5.60;;;3.73;;
8333;SDS011;4204;43.004;23.052;2023-05-13T04:41:24;6.37;;;3.83;;
8333;SDS011;4204;43.004;23.052;2023-05-13T04:43:52;3.57;;;3.10;;
8333;SDS011;4204;43.004;23.052;2023-05-13T04:46:20;3.30;;;3.00;;
8333;SDS011;4204;43.004;23.052;2023-05-13T04:48:52;5.40;;;3.03;;
8333;SDS011;4204;43.004;23.052;2023-05-13T04:51:20;3.57;;;3.03;;
8333;SDS011;4204;43.004;23.052;2023-05-13T04:53:48;3.60;;;3.03;;
8333;SDS011;4204;43.004;23.052;2023-05-13T04:56:17;3.20;;;2.90;;
8333;SDS011;4204;43.004;23.052;2023-05-13T04:58:45;4.40;;;3.43;;
8333;SDS011;4204;43.004;23.052;2023-05-13T05:01:15;7.17;;;3.80;;
8333;SDS011;4204;43.004;23.052;2023-05-13T05:03:43;3.70;;;3.33;;
8333;SDS011;4204;43.004;23.052;2023-05-13T05:06:12;3.53;;;3.20;;
8333;SDS011;4204;43.004;23.052;2023-05-13T05:08:42;3.73;;;3.33;;
8333;SDS011;4204;43.004;23.052;2023-05-13T05:11:10;3.17;;;2.87;;
8333;SDS011;4204;43.004;23.052;2023-05-13T05:13:38;4.93;;;3.00;;
8333;SDS011;4204;43.004;23.052;2023-05-13T05:16:06;3.30;;;3.00;;
8333;SDS011;4204;43.004;23.052;2023-05-13T05:18:34;3.20;;;2.90;;
8333;SDS011;4204;43.004;23.052;2023-05-13T05:21:03;4.20;;;3.80;;
8333;SDS011;4204;43.004;23.052;2023-05-13T05:23:32;4.17;;;3.30;;
8333;SDS011;4204;43.004;23.052;2023-05-13T05:26:00;4.60;;;3.53;;
8333;SDS011;4204;43.004;23.052;2023-05-13T05:28:31;3.50;;;3.20;;
8333;SDS011;4204;43.004;23.052;2023-05-13T05:30:58;3.43;;;3.10;;
8333;SDS011;4204;43.004;23.052;2023-05-13T05:33:28;4.50;;;3.30;;
8333;SDS011;4204;43.004;23.052;2023-05-13T05:35:56;4.40;;;3.40;;
8333;SDS011;4204;43.004;23.052;2023-05-13T05:38:24;3.40;;;3.10;;
8333;SDS011;4204;43.004;23.052;2023-05-13T05:40:58;4.10;;;3.57;;
8333;SDS011;4204;43.004;23.052;2023-05-13T05:43:26;4.67;;;3.40;;
8333;SDS011;4204;43.004;23.052;2023-05-13T05:45:54;4.33;;;3.93;;
8333;SDS011;4204;43.004;23.052;2023-05-13T05:48:22;4.50;;;3.80;;
8333;SDS011;4204;43.004;23.052;2023-05-13T05:50:50;5.23;;;3.90;;
8333;SDS011;4204;43.004;23.052;2023-05-13T05:53:25;4.27;;;3.60;;
8333;SDS011;4204;43.004;23.052;2023-05-13T05:55:53;7.33;;;4.70;;
8333;SDS011;4204;43.004;23.052;2023-05-13T05:58:22;6.90;;;4.73;;
8333;SDS011;4204;43.004;23.052;2023-05-13T06:00:51;5.87;;;4.90;;
8333;SDS011;4204;43.004;23.052;2023-05-13T06:03:20;10.43;;;5.33;;
8333;SDS011;4204;43.004;23.052;2023-05-13T06:05:48;8.80;;;5.87;;
8333;SDS011;4204;43.004;23.052;2023-05-13T06:08:15;8.53;;;6.33;;
8333;SDS011;4204;43.004;23.052;2023-05-13T06:10:44;8.73;;;5.40;;
8333;SDS011;4204;43.004;23.052;2023-05-13T06:13:12;7.20;;;5.43;;
8333;SDS011;4204;43.004;23.052;2023-05-13T06:15:42;9.00;;;5.60;;
8333;SDS011;4204;43.004;23.052;2023-05-13T06:18:11;9.37;;;5.50;;
8333;SDS011;4204;43.004;23.052;2023-05-13T06:20:39;8.27;;;5.70;;
8333;SDS011;4204;43.004;23.052;2023-05-13T06:23:07;9.43;;;5.97;;
8333;SDS011;4204;43.004;23.052;2023-05-13T06:25:35;8.10;;;6.57;;
8333;SDS011;4204;43.004;23.052;2023-05-13T06:28:05;9.50;;;6.23;;
8333;SDS011;4204;43.004;23.052;2023-05-13T06:30:37;7.73;;;5.90;;
8333;SDS011;4204;43.004;23.052;2023-05-13T06:33:06;8.87;;;6.03;;
8333;SDS011;4204;43.004;23.052;2023-05-13T06:35:36;7.80;;;6.13;;
8333;SDS011;4204;43.004;23.052;2023-05-13T06:38:05;8.90;;;6.00;;
8333;SDS011;4204;43.004;23.052;2023-05-13T06:40:34;7.57;;;6.00;;
8333;SDS011;4204;43.004;23.052;2023-05-13T06:43:02;8.60;;;5.77;;
8333;SDS011;4204;43.004;23.052;2023-05-13T06:45:36;8.97;;;6.20;;
8333;SDS011;4204;43.004;23.052;2023-05-13T06:48:05;11.73;;;8.37;;
8333;SDS011;4204;43.004;23.052;2023-05-13T06:50:33;8.50;;;6.50;;
8333;SDS011;4204;43.004;23.052;2023-05-13T06:53:01;10.13;;;6.57;;
8333;SDS011;4204;43.004;23.052;2023-05-13T06:55:29;9.37;;;5.80;;
8333;SDS011;4204;43.004;23.052;2023-05-13T06:57:57;9.60;;;5.90;;
8333;SDS011;4204;43.004;23.052;2023-05-13T07:00:25;9.37;;;6.97;;
8333;SDS011;4204;43.004;23.052;2023-05-13T07:02:53;8.07;;;6.00;;
8333;SDS011;4204;43.004;23.052;2023-05-13T07:05:22;8.17;;;6.70;;
8333;SDS011;4204;43.004;23.052;2023-05-13T07:07:50;8.37;;;6.60;;
8333;SDS011;4204;43.004;23.052;2023-05-13T07:10:18;11.57;;;8.20;;
8333;SDS011;4204;43.004;23.052;2023-05-13T07:12:46;10.10;;;6.50;;
8333;SDS011;4204;43.004;23.052;2023-05-13T07:15:14;9.77;;;7.10;;
8333;SDS011;4204;43.004;23.052;2023-05-13T07:17:42;8.10;;;6.77;;
8333;SDS011;4204;43.004;23.052;2023-05-13T07:20:10;9.40;;;6.90;;
8333;SDS011;4204;43.004;23.052;2023-05-13T07:22:40;10.53;;;7.43;;
8333;SDS011;4204;43.004;23.052;2023-05-13T07:25:08;10.93;;;8.00;;
8333;SDS011;4204;43.004;23.052;2023-05-13T07:27:36;10.50;;;7.57;;
8333;SDS011;4204;43.004;23.052;2023-05-13T07:30:04;10.00;;;7.17;;
8333;SDS011;4204;43.004;23.052;2023-05-13T07:32:33;10.70;;;7.63;;
8333;SDS011;4204;43.004;23.052;2023-05-13T07:35:02;11.50;;;8.30;;
8333;SDS011;4204;43.004;23.052;2023-05-13T07:37:30;10.00;;;6.47;;
8333;SDS011;4204;43.004;23.052;2023-05-13T07:39:59;8.93;;;7.57;;
8333;SDS011;4204;43.004;23.052;2023-05-13T07:42:27;11.83;;;7.47;;
8333;SDS011;4204;43.004;23.052;2023-05-13T07:44:55;11.37;;;7.77;;
8333;SDS011;4204;43.004;23.052;2023-05-13T07:47:23;9.47;;;7.23;;
8333;SDS011;4204;43.004;23.052;2023-05-13T07:49:52;12.73;;;8.30;;
8333;SDS011;4204;43.004;23.052;2023-05-13T07:52:20;8.97;;;7.07;;
8333;SDS011;4204;43.004;23.052;2023-05-13T07:54:48;13.07;;;8.40;;
8333;SDS011;4204;43.004;23.052;2023-05-13T07:57:17;10.33;;;7.63;;
8333;SDS011;4204;43.004;23.052;2023-05-13T07:59:45;10.70;;;7.87;;
8333;SDS011;4204;43.004;23.052;2023-05-13T08:02:13;11.17;;;7.77;;
8333;SDS011;4204;43.004;23.052;2023-05-13T08:04:40;10.20;;;7.80;;
8333;SDS011;4204;43.004;23.052;2023-05-13T08:07:08;10.63;;;7.73;;
8333;SDS011;4204;43.004;23.052;2023-05-13T08:09:36;8.80;;;6.93;;
8333;SDS011;4204;43.004;23.052;2023-05-13T08:12:04;9.90;;;7.30;;
8333;SDS011;4204;43.004;23.052;2023-05-13T08:14:34;11.77;;;7.90;;
8333;SDS011;4204;43.004;23.052;2023-05-13T08:17:03;11.37;;;7.97;;
8333;SDS011;4204;43.004;23.052;2023-05-13T08:19:32;8.83;;;7.50;;
8333;SDS011;4204;43.004;23.052;2023-05-13T08:22:01;8.13;;;6.50;;
8333;SDS011;4204;43.004;23.052;2023-05-13T08:24:29;13.33;;;8.30;;
8333;SDS011;4204;43.004;23.052;2023-05-13T08:26:57;9.33;;;7.67;;
8333;SDS011;4204;43.004;23.052;2023-05-13T08:29:25;11.20;;;8.03;;
8333;SDS011;4204;43.004;23.052;2023-05-13T08:31:54;8.37;;;7.47;;
8333;SDS011;4204;43.004;23.052;2023-05-13T08:34:21;10.63;;;7.47;;
8333;SDS011;4204;43.004;23.052;2023-05-13T08:36:49;8.87;;;7.47;;
8333;SDS011;4204;43.004;23.052;2023-05-13T08:39:17;10.00;;;7.93;;
8333;SDS011;4204;43.004;23.052;2023-05-13T08:41:45;10.33;;;8.23;;
8333;SDS011;4204;43.004;23.052;2023-05-13T08:44:13;9.77;;;8.03;;
8333;SDS011;4204;43.004;23.052;2023-05-13T08:46:45;9.03;;;8.10;;
8333;SDS011;4204;43.004;23.052;2023-05-13T08:49:19;10.00;;;8.47;;
8333;SDS011;4204;43.004;23.052;2023-05-13T08:51:47;10.47;;;8.80;;
8333;SDS011;4204;43.004;23.052;2023-05-13T08:54:14;9.87;;;8.40;;
8333;SDS011;4204;43.004;23.052;2023-05-13T08:56:43;9.40;;;8.47;;
8333;SDS011;4204;43.004;23.052;2023-05-13T08:59:11;10.30;;;8.50;;
8333;SDS011;4204;43.004;23.052;2023-05-13T09:01:39;9.83;;;8.70;;
8333;SDS011;4204;43.004;23.052;2023-05-13T09:04:07;10.60;;;9.37;;
8333;SDS011;4204;43.004;23.052;2023-05-13T09:06:38;9.90;;;8.90;;
8333;SDS011;4204;43.004;23.052;2023-05-13T09:09:06;8.63;;;7.73;;
8333;SDS011;4204;43.004;23.052;2023-05-13T09:11:34;9.33;;;8.07;;
8333;SDS011;4204;43.004;23.052;2023-05-13T09:14:05;7.87;;;7.07;;
8333;SDS011;4204;43.004;23.052;2023-05-13T09:16:36;9.27;;;8.00;;
8333;SDS011;4204;43.004;23.052;2023-05-13T09:19:05;10.93;;;8.60;;
8333;SDS011;4204;43.004;23.052;2023-05-13T09:21:33;8.73;;;7.23;;
8333;SDS011;4204;43.004;23.052;2023-05-13T09:24:06;10.03;;;9.03;;
8333;SDS011;4204;43.004;23.052;2023-05-13T09:26:36;11.17;;;9.50;;
8333;SDS011;4204;43.004;23.052;2023-05-13T09:29:16;9.77;;;8.77;;
8333;SDS011;4204;43.004;23.052;2023-05-13T09:31:49;9.80;;;8.80;;
8333;SDS011;4204;43.004;23.052;2023-05-13T09:34:25;9.80;;;8.80;;
8333;SDS011;4204;43.004;23.052;2023-05-13T09:36:58;9.30;;;7.90;;
8333;SDS011;4204;43.004;23.052;2023-05-13T09:39:29;8.57;;;7.67;;
8333;SDS011;4204;43.004;23.052;2023-05-13T09:41:59;8.33;;;7.23;;
8333;SDS011;4204;43.004;23.052;2023-05-13T09:44:27;10.73;;;7.97;;
8333;SDS011;4204;43.004;23.052;2023-05-13T09:46:55;7.73;;;6.80;;
8333;SDS011;4204;43.004;23.052;2023-05-13T09:49:24;8.20;;;7.40;;
8333;SDS011;4204;43.004;23.052;2023-05-13T09:51:52;7.83;;;7.03;;
8333;SDS011;4204;43.004;23.052;2023-05-13T09:54:20;8.17;;;7.37;;
8333;SDS011;4204;43.004;23.052;2023-05-13T09:56:49;8.07;;;7.27;;
8333;SDS011;4204;43.004;23.052;2023-05-13T09:59:25;8.90;;;7.67;;
8333;SDS011;4204;43.004;23.052;2023-05-13T10:01:53;8.60;;;7.70;;
8333;SDS011;4204;43.004;23.052;2023-05-13T10:04:25;7.37;;;6.67;;
8333;SDS011;4204;43.004;23.052;2023-05-13T10:06:53;8.73;;;6.80;;
8333;SDS011;4204;43.004;23.052;2023-05-13T10:09:22;8.23;;;7.33;;
8333;SDS011;4204;43.004;23.052;2023-05-13T10:11:54;8.43;;;7.57;;
8333;SDS011;4204;43.004;23.052;2023-05-13T10:14:24;6.83;;;6.20;;
8333;SDS011;4204;43.004;23.052;2023-05-13T10:16:53;5.50;;;5.00;;
8333;SDS011;4204;43.004;23.052;2023-05-13T10:19:22;5.60;;;5.10;;
8333;SDS011;4204;43.004;23.052;2023-05-13T10:21:52;6.57;;;5.40;;
8333;SDS011;4204;43.004;23.052;2023-05-13T10:24:20;6.80;;;6.10;;
8333;SDS011;4204;43.004;23.052;2023-05-13T10:26:49;6.93;;;5.00;;
8333;SDS011;4204;43.004;23.052;2023-05-13T10:29:20;6.40;;;5.07;;
8333;SDS011;4204;43.004;23.052;2023-05-13T10:31:49;8.00;;;5.27;;
8333;SDS011;4204;43.004;23.052;2023-05-13T10:34:18;5.83;;;5.23;;
8333;SDS011;4204;43.004;23.052;2023-05-13T10:36:52;9.17;;;5.47;;
8333;SDS011;4204;43.004;23.052;2023-05-13T10:39:41;6.57;;;5.10;;
8333;SDS011;4204;43.004;23.052;2023-05-13T10:42:36;5.20;;;4.70;;
8333;SDS011;4204;43.004;23.052;2023-05-13T10:45:09;6.90;;;5.37;;
8333;SDS011;4204;43.004;23.052;2023-05-13T10:47:37;5.23;;;4.73;;
8333;SDS011;4204;43.004;23.052;2023-05-13T10:50:05;6.67;;;5.43;;
8333;SDS011;4204;43.004;23.052;2023-05-13T10:52:47;5.40;;;4.90;;
8333;SDS011;4204;43.004;23.052;2023-05-13T10:55:16;6.20;;;5.60;;
8333;SDS011;4204;43.004;23.052;2023-05-13T11:00:41;6.63;;;4.77;;
8333;SDS011;4204;43.004;23.052;2023-05-13T11:03:10;4.57;;;4.17;;
8333;SDS011;4204;43.004;23.052;2023-05-13T11:05:40;7.13;;;4.63;;
8333;SDS011;4204;43.004;23.052;2023-05-13T11:08:10;8.30;;;4.60;;
8333;SDS011;4204;43.004;23.052;2023-05-13T11:10:38;6.90;;;5.20;;
8333;SDS011;4204;43.004;23.052;2023-05-13T11:13:07;5.47;;;4.97;;
8333;SDS011;4204;43.004;23.052;2023-05-13T11:15:51;5.40;;;4.90;;
8333;SDS011;4204;43.004;23.052;2023-05-13T11:18:28;5.93;;;4.20;;
8333;SDS011;4204;43.004;23.052;2023-05-13T11:21:00;5.00;;;3.73;;
8333;SDS011;4204;43.004;23.052;2023-05-13T11:23:29;3.70;;;3.33;;
8333;SDS011;4204;43.004;23.052;2023-05-13T11:26:09;5.67;;;3.23;;
8333;SDS011;4204;43.004;23.052;2023-05-13T11:28:51;6.37;;;3.37;;
8333;SDS011;4204;43.004;23.052;2023-05-13T11:31:21;6.53;;;4.50;;
8333;SDS011;4204;43.004;23.052;2023-05-13T11:34:05;4.90;;;3.93;;
8333;SDS011;4204;43.004;23.052;2023-05-13T11:36:35;3.90;;;3.50;;
8333;SDS011;4204;43.004;23.052;2023-05-13T11:39:04;8.53;;;4.83;;
8333;SDS011;4204;43.004;23.052;2023-05-13T11:41:33;4.47;;;3.47;;
8333;SDS011;4204;43.004;23.052;2023-05-13T11:44:01;4.67;;;3.50;;
8333;SDS011;4204;43.004;23.052;2023-05-13T11:46:33;4.77;;;3.10;;
8333;SDS011;4204;43.004;23.052;2023-05-13T11:49:01;3.50;;;3.20;;
8333;SDS011;4204;43.004;23.052;2023-05-13T11:51:29;3.80;;;3.03;;
8333;SDS011;4204;43.004;23.052;2023-05-13T11:54:01;4.33;;;3.10;;
8333;SDS011;4204;43.004;23.052;2023-05-13T11:56:29;3.47;;;3.17;;
8333;SDS011;4204;43.004;23.052;2023-05-13T11:59:12;3.97;;;2.70;;
8333;SDS011;4204;43.004;23.052;2023-05-13T12:01:42;3.10;;;2.80;;
8333;SDS011;4204;43.004;23.052;2023-05-13T12:04:10;3.87;;;3.00;;
8333;SDS011;4204;43.004;23.052;2023-05-13T12:06:42;3.63;;;3.23;;
8333;SDS011;4204;43.004;23.052;2023-05-13T12:09:11;4.07;;;2.90;;
8333;SDS011;4204;43.004;23.052;2023-05-13T12:11:39;4.10;;;2.93;;
8333;SDS011;4204;43.004;23.052;2023-05-13T12:14:07;4.87;;;2.67;;
8333;SDS011;4204;43.004;23.052;2023-05-13T12:16:35;2.63;;;2.43;;
8333;SDS011;4204;43.004;23.052;2023-05-13T12:19:05;2.50;;;1.90;;
8333;SDS011;4204;43.004;23.052;2023-05-13T12:21:33;5.30;;;2.30;;
8333;SDS011;4204;43.004;23.052;2023-05-13T12:24:00;4.03;;;2.67;;
8333;SDS011;4204;43.004;23.052;2023-05-13T12:26:28;15.30;;;3.30;;
8333;SDS011;4204;43.004;23.052;2023-05-13T12:28:57;2.77;;;2.23;;
8333;SDS011;4204;43.004;23.052;2023-05-13T12:31:25;3.07;;;2.43;;
8333;SDS011;4204;43.004;23.052;2023-05-13T12:33:53;4.33;;;2.47;;
8333;SDS011;4204;43.004;23.052;2023-05-13T12:36:23;4.87;;;2.90;;
8333;SDS011;4204;43.004;23.052;2023-05-13T12:38:57;3.77;;;3.20;;
8333;SDS011;4204;43.004;23.052;2023-05-13T12:41:26;5.40;;;2.90;;
8333;SDS011;4204;43.004;23.052;2023-05-13T12:43:56;4.07;;;3.67;;
8333;SDS011;4204;43.004;23.052;2023-05-13T12:46:25;4.03;;;3.60;;
8333;SDS011;4204;43.004;23.052;2023-05-13T12:48:56;5.60;;;3.60;;
8333;SDS011;4204;43.004;23.052;2023-05-13T12:51:26;5.07;;;3.13;;
8333;SDS011;4204;43.004;23.052;2023-05-13T12:53:55;5.13;;;3.47;;
8333;SDS011;4204;43.004;23.052;2023-05-13T12:56:23;5.00;;;3.87;;
8333;SDS011;4204;43.004;23.052;2023-05-13T12:58:52;3.63;;;3.33;;
8333;SDS011;4204;43.004;23.052;2023-05-13T13:01:20;5.43;;;3.50;;
8333;SDS011;4204;43.004;23.052;2023-05-13T13:03:48;4.10;;;3.70;;
8333;SDS011;4204;43.004;23.052;2023-05-13T13:06:16;4.13;;;3.60;;
8333;SDS011;4204;43.004;23.052;2023-05-13T13:08:45;5.37;;;3.87;;
8333;SDS011;4204;43.004;23.052;2023-05-13T13:11:13;3.97;;;3.67;;
8333;SDS011;4204;43.004;23.052;2023-05-13T13:13:43;5.97;;;4.00;;
8333;SDS011;4204;43.004;23.052;2023-05-13T13:16:11;5.57;;;3.63;;
8333;SDS011;4204;43.004;23.052;2023-05-13T13:18:39;5.30;;;3.83;;
8333;SDS011;4204;43.004;23.052;2023-05-13T13:21:08;4.03;;;3.43;;
8333;SDS011;4204;43.004;23.052;2023-05-13T13:23:36;5.30;;;3.60;;
8333;SDS011;4204;43.004;23.052;2023-05-13T13:26:06;5.63;;;3.77;;
8333;SDS011;4204;43.004;23.052;2023-05-13T13:28:34;6.40;;;3.93;;
8333;SDS011;4204;43.004;23.052;2023-05-13T13:31:02;7.10;;;3.90;;
8333;SDS011;4204;43.004;23.052;2023-05-13T13:33:30;3.17;;;2.73;;
8333;SDS011;4204;43.004;23.052;2023-05-13T13:35:57;4.93;;;3.03;;
8333;SDS011;4204;43.004;23.052;2023-05-13T13:38:25;3.83;;;2.90;;
8333;SDS011;4204;43.004;23.052;2023-05-13T13:40:53;4.83;;;3.43;;
8333;SDS011;4204;43.004;23.052;2023-05-13T13:43:22;6.00;;;3.97;;
8333;SDS011;4204;43.004;23.052;2023-05-13T13:45:50;5.53;;;3.40;;
8333;SDS011;4204;43.004;23.052;2023-05-13T13:48:18;7.73;;;4.17;;
8333;SDS011;4204;43.004;23.052;2023-05-13T13:50:45;10.90;;;4.97;;
8333;SDS011;4204;43.004;23.052;2023-05-13T13:53:13;5.53;;;4.00;;
8333;SDS011;4204;43.004;23.052;2023-05-13T13:55:41;10.77;;;5.90;;
8333;SDS011;4204;43.004;23.052;2023-05-13T13:58:09;11.87;;;6.97;;
8333;SDS011;4204;43.004;23.052;2023-05-13T14:00:38;9.50;;;5.07;;
8333;SDS011;4204;43.004;23.052;2023-05-13T14:03:06;5.70;;;4.10;;
8333;SDS011;4204;43.004;23.052;2023-05-13T14:05:34;6.70;;;3.83;;
8333;SDS011;4204;43.004;23.052;2023-05-13T14:08:02;5.47;;;4.13;;
8333;SDS011;4204;43.004;23.052;2023-05-13T14:10:30;4.33;;;3.87;;
8333;SDS011;4204;43.004;23.052;2023-05-13T14:12:58;4.10;;;3.10;;
8333;SDS011;4204;43.004;23.052;2023-05-13T14:15:26;12.07;;;5.23;;
8333;SDS011;4204;43.004;23.052;2023-05-13T14:17:57;4.27;;;3.87;;
8333;SDS011;4204;43.004;23.052;2023-05-13T14:20:25;5.40;;;3.77;;
8333;SDS011;4204;43.004;23.052;2023-05-13T14:22:53;4.17;;;3.50;;
8333;SDS011;4204;43.004;23.052;2023-05-13T14:25:21;3.87;;;3.17;;
8333;SDS011;4204;43.004;23.052;2023-05-13T14:27:49;5.77;;;3.40;;
8333;SDS011;4204;43.004;23.052;2023-05-13T14:30:17;6.57;;;3.60;;
8333;SDS011;4204;43.004;23.052;2023-05-13T14:32:44;4.40;;;3.30;;
8333;SDS011;4204;43.004;23.052;2023-05-13T14:35:14;3.97;;;3.63;;
8333;SDS011;4204;43.004;23.052;2023-05-13T14:37:42;6.03;;;4.50;;
8333;SDS011;4204;43.004;23.052;2023-05-13T14:40:10;3.87;;;3.47;;
8333;SDS011;4204;43.004;23.052;2023-05-13T14:42:38;5.97;;;3.97;;
8333;SDS011;4204;43.004;23.052;2023-05-13T14:45:06;4.20;;;3.80;;
8333;SDS011;4204;43.004;23.052;2023-05-13T14:47:34;6.13;;;3.87;;
8333;SDS011;4204;43.004;23.052;2023-05-13T14:50:02;3.50;;;3.20;;
8333;SDS011;4204;43.004;23.052;2023-05-13T14:52:32;5.40;;;4.40;;
8333;SDS011;4204;43.004;23.052;2023-05-13T14:55:00;4.53;;;3.80;;
8333;SDS011;4204;43.004;23.052;2023-05-13T14:57:28;4.00;;;3.60;;
8333;SDS011;4204;43.004;23.052;2023-05-13T14:59:55;5.63;;;3.70;;
8333;SDS011;4204;43.004;23.052;2023-05-13T15:02:23;3.97;;;3.27;;
8333;SDS011;4204;43.004;23.052;2023-05-13T15:04:51;5.60;;;3.70;;
8333;SDS011;4204;43.004;23.052;2023-05-13T15:07:19;5.23;;;4.07;;
8333;SDS011;4204;43.004;23.052;2023-05-13T15:09:49;3.73;;;3.17;;
8333;SDS011;4204;43.004;23.052;2023-05-13T15:12:17;3.70;;;3.30;;
8333;SDS011;4204;43.004;23.052;2023-05-13T15:14:49;4.40;;;3.43;;